»·PEaware :: SWA59 KSFO-KSNA

SWA59 :: KSFO-KSNA

FLIGHT INFORMATION

Flight Status: Arrived
Operator:
Southwest Airlines
More flights by this operator :: More flights under this callsign
Pilot: Max W. (2591)
Aircraft: BOEING 737-800
(B738)
More flights by this aircraft type
Origin: KSFO San Francisco Intl
United States
Destination: KSNA John Wayne-Orange Co
United States
More flights between these airports :: More routes between these airports
Route: +SSTIK4 CISKO RDHOT OHSEA1
File this flight plan on PilotEdge
Remarks:
Altitude:
(Current/Filed)
31,000ft
Speed:
(Current/Filed)
450kts
Departed: 10-Oct-18 02:45 PM
Arrived: 10-Oct-18 03:49 PM
Distance/Time
Traveled:
323nm/1:03
Distance/Time
To Go:
Arrived

Flight Plot

Page will automatically refresh every two minutes.

Flight plan parsing failed; only flown route is shown


Map Options




Map Legend


Flown Route
Filed Route
Departure Airport
Arrival Airport
Navaid (VOR, NDB)
Fix

Horizontal Profiles

Position Reports

Time Latitude Longitude Heading Altitude Ground
Speed
10-Oct-18 14:13 37.612830 -122.383166 296 19ft 0kts
10-Oct-18 14:14 37.612830 -122.383166 296 19ft 0kts
10-Oct-18 14:15 37.612830 -122.383166 296 19ft 0kts
10-Oct-18 14:16 37.612830 -122.383166 296 19ft 0kts
10-Oct-18 14:17 37.612830 -122.383166 296 19ft 0kts
10-Oct-18 14:18 37.612830 -122.383166 296 19ft 0kts
10-Oct-18 14:19 37.612830 -122.383166 296 19ft 0kts
10-Oct-18 14:20 37.612830 -122.383166 296 19ft 0kts
10-Oct-18 14:21 37.612830 -122.383166 296 19ft 0kts
10-Oct-18 14:22 37.612830 -122.383166 296 19ft 0kts
10-Oct-18 14:23 37.612830 -122.383166 296 19ft 0kts
10-Oct-18 14:24 37.612830 -122.383166 296 19ft 0kts
10-Oct-18 14:25 37.612830 -122.383166 296 19ft 0kts
10-Oct-18 14:26 37.612830 -122.383166 296 19ft 0kts
10-Oct-18 14:27 37.612830 -122.383166 296 19ft 0kts
10-Oct-18 14:28 37.612830 -122.383166 296 19ft 0kts
10-Oct-18 14:29 37.612830 -122.383166 296 19ft 0kts
10-Oct-18 14:30 37.612830 -122.383166 296 19ft 0kts
10-Oct-18 14:31 37.612830 -122.383166 296 19ft 0kts
10-Oct-18 14:32 37.612830 -122.383166 296 19ft 0kts
10-Oct-18 14:33 37.612830 -122.383166 296 19ft 0kts
10-Oct-18 14:34 37.612830 -122.383166 296 19ft 0kts
10-Oct-18 14:35 37.612830 -122.383166 296 19ft 0kts
10-Oct-18 14:36 37.612830 -122.383166 296 19ft 0kts
10-Oct-18 14:37 37.612830 -122.383166 296 19ft 0kts
10-Oct-18 14:38 37.612830 -122.383166 296 19ft 0kts
10-Oct-18 14:39 37.612808 -122.383110 296 19ft 2kts
10-Oct-18 14:40 37.612587 -122.382478 264 19ft 2kts
10-Oct-18 14:41 37.612786 -122.382169 205 19ft 0kts
10-Oct-18 14:42 37.612786 -122.382169 205 19ft 0kts
10-Oct-18 14:43 37.612786 -122.382169 205 19ft 0kts
10-Oct-18 14:44 37.612311 -122.382516 210 19ft 13kts
10-Oct-18 14:45 37.608754 -122.384724 163 19ft 2kts
10-Oct-18 14:46 37.608617 -122.384662 159 19ft 1kts
10-Oct-18 14:47 37.609824 -122.381637 27 19ft 61kts
10-Oct-18 14:48 37.640003 -122.360740 24 1011ft 181kts
10-Oct-18 14:49 37.693100 -122.360203 333 2781ft 220kts
10-Oct-18 14:50 37.707476 -122.429639 235 4861ft 243kts
10-Oct-18 14:51 37.640399 -122.458798 187 7228ft 281kts
10-Oct-18 14:52 37.560266 -122.467273 186 9696ft 300kts
10-Oct-18 14:53 37.473989 -122.459465 157 11331ft 330kts
10-Oct-18 14:54 37.408434 -122.379869 131 13440ft 348kts
10-Oct-18 14:55 37.338284 -122.291904 134 15565ft 365kts
10-Oct-18 14:56 37.264211 -122.202713 134 17599ft 379kts
10-Oct-18 14:57 37.187715 -122.110958 134 19761ft 383kts
10-Oct-18 14:58 37.109817 -122.017788 134 21514ft 395kts
10-Oct-18 14:59 37.028751 -121.921110 136 22937ft 412kts
10-Oct-18 15:00 36.944635 -121.821133 137 24369ft 425kts
10-Oct-18 15:01 36.858727 -121.719443 137 25778ft 434kts
10-Oct-18 15:02 36.770104 -121.614885 137 27081ft 443kts
10-Oct-18 15:03 36.679908 -121.508841 138 28299ft 452kts
10-Oct-18 15:04 36.588389 -121.401594 138 29542ft 457kts
10-Oct-18 15:05 36.496968 -121.294730 139 30868ft 456kts
10-Oct-18 15:06 36.401321 -121.183361 139 30899ft 490kts
10-Oct-18 15:07 36.297110 -121.073633 143 30894ft 491kts
10-Oct-18 15:08 36.192991 -120.967156 144 30898ft 483kts
10-Oct-18 15:09 36.089571 -120.861720 144 30901ft 483kts
10-Oct-18 15:10 35.985992 -120.756486 144 30909ft 491kts
10-Oct-18 15:11 35.885701 -120.654945 144 30911ft 494kts
10-Oct-18 15:12 35.782935 -120.551218 144 30912ft 494kts
10-Oct-18 15:13 35.676762 -120.444464 144 30913ft 494kts
10-Oct-18 15:14 35.570569 -120.338232 144 30909ft 494kts
10-Oct-18 15:15 35.466356 -120.233791 144 30906ft 494kts
10-Oct-18 15:16 35.360366 -120.128017 145 30941ft 493kts
10-Oct-18 15:17 35.254012 -120.022266 144 30993ft 493kts
10-Oct-18 15:18 35.147745 -119.917016 144 30958ft 494kts
10-Oct-18 15:19 35.045596 -119.813469 138 30916ft 497kts
10-Oct-18 15:20 34.948190 -119.694636 138 30902ft 497kts
10-Oct-18 15:21 34.869215 -119.599541 137 30907ft 496kts
10-Oct-18 15:22 34.755820 -119.463469 137 30908ft 496kts
10-Oct-18 15:23 34.673902 -119.365557 137 30918ft 496kts
10-Oct-18 15:24 34.579841 -119.252792 138 30919ft 462kts
10-Oct-18 15:25 34.489031 -119.144100 139 30911ft 464kts
10-Oct-18 15:26 34.380271 -119.017908 139 28267ft 472kts
10-Oct-18 15:27 34.301378 -118.927962 139 25782ft 465kts
10-Oct-18 15:28 34.203299 -118.837799 159 23051ft 423kts
10-Oct-18 15:29 34.098171 -118.794038 164 20657ft 382kts
10-Oct-18 15:30 34.000462 -118.755929 164 18496ft 365kts
10-Oct-18 15:31 33.905479 -118.719238 164 16482ft 354kts
10-Oct-18 15:32 33.814426 -118.684115 163 14507ft 344kts
10-Oct-18 15:33 33.724841 -118.649981 164 12746ft 338kts
10-Oct-18 15:34 33.636534 -118.619023 164 10899ft 310kts
10-Oct-18 15:35 33.576422 -118.565351 125 10018ft 285kts
10-Oct-18 15:36 33.532792 -118.486097 122 8817ft 284kts
10-Oct-18 15:37 33.519258 -118.394481 90 7648ft 283kts
10-Oct-18 15:38 33.525762 -118.303611 69 6561ft 279kts
10-Oct-18 15:39 33.554575 -118.218085 68 5490ft 276kts
10-Oct-18 15:40 33.589598 -118.136435 54 5008ft 280kts
10-Oct-18 15:41 33.633613 -118.059119 56 5009ft 280kts
10-Oct-18 15:42 33.676524 -117.981989 55 5009ft 277kts
10-Oct-18 15:43 33.731974 -117.921920 25 5007ft 272kts
10-Oct-18 15:44 33.793361 -117.884292 27 4874ft 225kts
10-Oct-18 15:45 33.847133 -117.850027 30 3693ft 217kts
10-Oct-18 15:46 33.851102 -117.788358 143 3000ft 211kts
10-Oct-18 15:47 33.793565 -117.791700 215 2584ft 190kts
10-Oct-18 15:48 33.751120 -117.820949 207 1638ft 161kts
10-Oct-18 15:49 33.718233 -117.841498 209 1066ft 159kts
10-Oct-18 15:50 33.679162 -117.866602 207 65ft 153kts
10-Oct-18 15:51 33.669084 -117.870974 53 63ft 0kts
10-Oct-18 15:52 33.671766 -117.868314 32 63ft 32kts

Navigation Log

Ident Type
Flight plan parsing failed, navigation log unavailable